Bismarck, ND

12:29 PM CST on December 04, 2016 (GMT -0600)
ASOS_HFM | | Change Station

Elev 1660 ft 46.77 °N, 100.75 °W | Updated 24 minutes ago

Clear
Clear
32 °F
Feels Like 24 °F
N
10
Wind Variable Wind from West
Gusts 0.0 mph

Today
High -- | Low -- °F
--% Chance of Precip.
Yesterday
High -- | Low -- °F
Precip. -- in
Pressure 29.81 in
Visibility 10.0 miles
Clouds Clear
Windchill 24 °F
Dew Point 25 °F
Humidity 74%
Rainfall in
Snow Depth Not available.
8:11 AM 4:55 PM
Waxing Crescent, 24% visible
METAR KBIS 041752Z 26012KT 10SM CLR 00/M04 A2975 RMK AO2 SLP095 60000 T00001044 10006 21011 58003
Pressure 29.81 in
Visibility 10.0 miles
Clouds Clear
Windchill 24 °F
Dew Point 25 °F
Humidity 74%
Rainfall in
Snow Depth Not available.
8:11 AM 4:55 PM
Waxing Crescent, 24% visible
METAR KBIS 041752Z 26012KT 10SM CLR 00/M04 A2975 RMK AO2 SLP095 60000 T00001044 10006 21011 58003

10-Day Weather Forecast

Almanac

Astronomy

Dec. 04, 2016 Rise Set
Actual Time
Civil Twilight
Nautical Twilight
Astronomical Twilight
Moon
Length of Visible Light
Length of Day
Tomorrow will be .
, % of the Moon is Illuminated

Today's Extremes

State Highs State Lows

Community

WunderPhotos

Upload Photos

1,955,639 photos uploaded!

WunderBlog® & News

Nearby

Air Quality

  Air Quality AQ Index Pollutant
Not available.

Snow Depth

Station Depth Elevation

Earthquake Activity

City Distance Mag. Time & Date
Minimum magnitude displayed is 2.5.

Coastal Water Temperatures

Place Temperature

Stations

Nearby Weather Stations

Station Location Temp. Windchill Dew Point Humidity Wind Precip. Elev Updated Type
                   

Watches & Warnings

There are currently no watches in effect.